sensor_id;sensor_type;location;lat;lon;timestamp;P1;durP1;ratioP1;P2;durP2;ratioP2
31382;SDS011;18014;49.228;11.102;2024-01-30T00:01:36;13.73;;;7.72;;
31382;SDS011;18014;49.228;11.102;2024-01-30T00:03:37;12.52;;;8.32;;
31382;SDS011;18014;49.228;11.102;2024-01-30T00:05:38;10.98;;;7.80;;
31382;SDS011;18014;49.228;11.102;2024-01-30T00:07:39;11.50;;;8.02;;
31382;SDS011;18014;49.228;11.102;2024-01-30T00:09:39;12.70;;;7.40;;
31382;SDS011;18014;49.228;11.102;2024-01-30T00:11:40;14.13;;;8.45;;
31382;SDS011;18014;49.228;11.102;2024-01-30T00:13:41;12.60;;;8.07;;
31382;SDS011;18014;49.228;11.102;2024-01-30T00:15:42;14.00;;;7.95;;
31382;SDS011;18014;49.228;11.102;2024-01-30T00:17:43;9.55;;;6.95;;
31382;SDS011;18014;49.228;11.102;2024-01-30T00:19:44;11.05;;;7.45;;
31382;SDS011;18014;49.228;11.102;2024-01-30T00:21:45;13.55;;;7.95;;
31382;SDS011;18014;49.228;11.102;2024-01-30T00:23:46;12.70;;;7.63;;
31382;SDS011;18014;49.228;11.102;2024-01-30T00:25:47;13.82;;;8.75;;
31382;SDS011;18014;49.228;11.102;2024-01-30T00:27:48;15.60;;;8.93;;
31382;SDS011;18014;49.228;11.102;2024-01-30T00:29:49;12.32;;;8.65;;
31382;SDS011;18014;49.228;11.102;2024-01-30T00:31:50;13.77;;;8.68;;
31382;SDS011;18014;49.228;11.102;2024-01-30T00:33:52;15.65;;;9.18;;
31382;SDS011;18014;49.228;11.102;2024-01-30T00:35:53;15.50;;;8.85;;
31382;SDS011;18014;49.228;11.102;2024-01-30T00:37:54;16.70;;;9.98;;
31382;SDS011;18014;49.228;11.102;2024-01-30T00:39:55;21.42;;;9.90;;
31382;SDS011;18014;49.228;11.102;2024-01-30T00:41:56;15.85;;;9.15;;
31382;SDS011;18014;49.228;11.102;2024-01-30T00:43:57;17.02;;;9.35;;
31382;SDS011;18014;49.228;11.102;2024-01-30T00:45:58;15.45;;;9.18;;
31382;SDS011;18014;49.228;11.102;2024-01-30T00:47:59;15.52;;;9.45;;
31382;SDS011;18014;49.228;11.102;2024-01-30T00:50:00;12.32;;;9.32;;
31382;SDS011;18014;49.228;11.102;2024-01-30T00:52:01;16.98;;;10.27;;
31382;SDS011;18014;49.228;11.102;2024-01-30T00:54:02;16.42;;;9.93;;
31382;SDS011;18014;49.228;11.102;2024-01-30T00:56:03;18.77;;;10.88;;
31382;SDS011;18014;49.228;11.102;2024-01-30T00:58:04;15.55;;;9.18;;
31382;SDS011;18014;49.228;11.102;2024-01-30T01:00:06;15.20;;;9.45;;
31382;SDS011;18014;49.228;11.102;2024-01-30T01:02:08;14.98;;;9.02;;
31382;SDS011;18014;49.228;11.102;2024-01-30T01:04:09;19.25;;;10.63;;
31382;SDS011;18014;49.228;11.102;2024-01-30T01:06:10;15.48;;;9.27;;
31382;SDS011;18014;49.228;11.102;2024-01-30T01:08:11;14.93;;;8.65;;
31382;SDS011;18014;49.228;11.102;2024-01-30T01:10:13;14.52;;;9.70;;
31382;SDS011;18014;49.228;11.102;2024-01-30T01:12:15;14.98;;;9.02;;
31382;SDS011;18014;49.228;11.102;2024-01-30T01:14:16;14.15;;;9.25;;
31382;SDS011;18014;49.228;11.102;2024-01-30T01:16:17;11.98;;;8.43;;
31382;SDS011;18014;49.228;11.102;2024-01-30T01:18:18;12.18;;;8.52;;
31382;SDS011;18014;49.228;11.102;2024-01-30T01:20:19;12.65;;;8.23;;
31382;SDS011;18014;49.228;11.102;2024-01-30T01:22:20;14.40;;;8.82;;
31382;SDS011;18014;49.228;11.102;2024-01-30T01:24:22;12.05;;;8.63;;
31382;SDS011;18014;49.228;11.102;2024-01-30T01:26:24;13.40;;;9.02;;
31382;SDS011;18014;49.228;11.102;2024-01-30T01:28:25;16.10;;;9.07;;
31382;SDS011;18014;49.228;11.102;2024-01-30T01:30:26;14.00;;;8.75;;
31382;SDS011;18014;49.228;11.102;2024-01-30T01:32:29;13.77;;;8.40;;
31382;SDS011;18014;49.228;11.102;2024-01-30T01:34:30;16.90;;;9.13;;
31382;SDS011;18014;49.228;11.102;2024-01-30T01:36:31;12.00;;;8.35;;
31382;SDS011;18014;49.228;11.102;2024-01-30T01:38:32;13.50;;;8.00;;
31382;SDS011;18014;49.228;11.102;2024-01-30T01:40:33;14.57;;;8.90;;
31382;SDS011;18014;49.228;11.102;2024-01-30T01:42:34;15.38;;;9.13;;
31382;SDS011;18014;49.228;11.102;2024-01-30T01:44:35;11.27;;;8.05;;
31382;SDS011;18014;49.228;11.102;2024-01-30T01:46:36;13.52;;;8.18;;
31382;SDS011;18014;49.228;11.102;2024-01-30T01:48:37;13.25;;;8.25;;
31382;SDS011;18014;49.228;11.102;2024-01-30T01:50:40;11.55;;;8.57;;
31382;SDS011;18014;49.228;11.102;2024-01-30T01:52:42;13.52;;;8.90;;
31382;SDS011;18014;49.228;11.102;2024-01-30T01:54:43;15.88;;;8.73;;
31382;SDS011;18014;49.228;11.102;2024-01-30T01:56:44;13.98;;;8.60;;
31382;SDS011;18014;49.228;11.102;2024-01-30T01:58:45;13.02;;;8.52;;
31382;SDS011;18014;49.228;11.102;2024-01-30T02:00:47;14.55;;;9.15;;
31382;SDS011;18014;49.228;11.102;2024-01-30T02:02:49;14.03;;;8.97;;
31382;SDS011;18014;49.228;11.102;2024-01-30T02:04:50;14.70;;;9.30;;
31382;SDS011;18014;49.228;11.102;2024-01-30T02:06:51;15.05;;;9.00;;
31382;SDS011;18014;49.228;11.102;2024-01-30T02:08:52;11.07;;;8.43;;
31382;SDS011;18014;49.228;11.102;2024-01-30T02:10:54;13.65;;;8.90;;
31382;SDS011;18014;49.228;11.102;2024-01-30T02:12:55;12.95;;;8.82;;
31382;SDS011;18014;49.228;11.102;2024-01-30T02:14:56;12.55;;;8.43;;
31382;SDS011;18014;49.228;11.102;2024-01-30T02:16:57;13.90;;;8.18;;
31382;SDS011;18014;49.228;11.102;2024-01-30T02:18:57;14.65;;;8.63;;
31382;SDS011;18014;49.228;11.102;2024-01-30T02:20:59;12.98;;;8.77;;
31382;SDS011;18014;49.228;11.102;2024-01-30T02:23:04;13.60;;;8.77;;
31382;SDS011;18014;49.228;11.102;2024-01-30T02:25:06;13.43;;;8.77;;
31382;SDS011;18014;49.228;11.102;2024-01-30T02:27:07;11.77;;;8.45;;
31382;SDS011;18014;49.228;11.102;2024-01-30T02:29:08;14.40;;;8.38;;
31382;SDS011;18014;49.228;11.102;2024-01-30T02:31:09;11.60;;;8.93;;
31382;SDS011;18014;49.228;11.102;2024-01-30T02:33:10;14.32;;;9.20;;
31382;SDS011;18014;49.228;11.102;2024-01-30T02:35:11;14.70;;;8.43;;
31382;SDS011;18014;49.228;11.102;2024-01-30T02:37:12;14.02;;;9.38;;
31382;SDS011;18014;49.228;11.102;2024-01-30T02:39:13;14.70;;;9.38;;
31382;SDS011;18014;49.228;11.102;2024-01-30T02:41:14;16.38;;;10.15;;
31382;SDS011;18014;49.228;11.102;2024-01-30T02:43:15;15.95;;;9.05;;
31382;SDS011;18014;49.228;11.102;2024-01-30T02:45:16;12.70;;;8.40;;
31382;SDS011;18014;49.228;11.102;2024-01-30T02:47:18;13.23;;;8.80;;
31382;SDS011;18014;49.228;11.102;2024-01-30T02:49:18;14.68;;;9.80;;
31382;SDS011;18014;49.228;11.102;2024-01-30T02:51:20;17.98;;;9.10;;
31382;SDS011;18014;49.228;11.102;2024-01-30T02:53:21;17.15;;;9.52;;
31382;SDS011;18014;49.228;11.102;2024-01-30T02:55:22;13.10;;;9.18;;
31382;SDS011;18014;49.228;11.102;2024-01-30T02:57:22;13.73;;;9.32;;
31382;SDS011;18014;49.228;11.102;2024-01-30T02:59:23;14.65;;;9.60;;
31382;SDS011;18014;49.228;11.102;2024-01-30T03:01:24;14.25;;;8.95;;
31382;SDS011;18014;49.228;11.102;2024-01-30T03:03:25;17.10;;;9.93;;
31382;SDS011;18014;49.228;11.102;2024-01-30T03:05:26;18.58;;;9.52;;
31382;SDS011;18014;49.228;11.102;2024-01-30T03:07:27;15.15;;;9.65;;
31382;SDS011;18014;49.228;11.102;2024-01-30T03:09:28;18.70;;;9.32;;
31382;SDS011;18014;49.228;11.102;2024-01-30T03:11:29;13.82;;;9.38;;
31382;SDS011;18014;49.228;11.102;2024-01-30T03:13:30;15.60;;;9.63;;
31382;SDS011;18014;49.228;11.102;2024-01-30T03:15:31;14.93;;;9.95;;
31382;SDS011;18014;49.228;11.102;2024-01-30T03:17:32;14.05;;;9.65;;
31382;SDS011;18014;49.228;11.102;2024-01-30T03:19:33;12.73;;;8.90;;
31382;SDS011;18014;49.228;11.102;2024-01-30T03:21:34;14.98;;;9.57;;
31382;SDS011;18014;49.228;11.102;2024-01-30T03:23:35;17.02;;;10.18;;
31382;SDS011;18014;49.228;11.102;2024-01-30T03:25:36;14.77;;;9.48;;
31382;SDS011;18014;49.228;11.102;2024-01-30T03:27:37;16.33;;;10.60;;
31382;SDS011;18014;49.228;11.102;2024-01-30T03:29:38;18.73;;;10.02;;
31382;SDS011;18014;49.228;11.102;2024-01-30T03:31:39;14.65;;;9.60;;
31382;SDS011;18014;49.228;11.102;2024-01-30T03:33:40;15.88;;;9.40;;
31382;SDS011;18014;49.228;11.102;2024-01-30T03:35:41;13.23;;;8.70;;
31382;SDS011;18014;49.228;11.102;2024-01-30T03:37:42;14.98;;;9.63;;
31382;SDS011;18014;49.228;11.102;2024-01-30T03:39:43;14.13;;;9.55;;
31382;SDS011;18014;49.228;11.102;2024-01-30T03:41:44;17.67;;;10.27;;
31382;SDS011;18014;49.228;11.102;2024-01-30T03:43:47;20.95;;;10.43;;
31382;SDS011;18014;49.228;11.102;2024-01-30T03:47:49;16.05;;;9.00;;
31382;SDS011;18014;49.228;11.102;2024-01-30T03:49:50;15.32;;;10.25;;
31382;SDS011;18014;49.228;11.102;2024-01-30T03:51:51;14.52;;;10.50;;
31382;SDS011;18014;49.228;11.102;2024-01-30T03:53:52;17.50;;;9.23;;
31382;SDS011;18014;49.228;11.102;2024-01-30T03:55:52;15.60;;;10.48;;
31382;SDS011;18014;49.228;11.102;2024-01-30T03:57:53;14.25;;;9.85;;
31382;SDS011;18014;49.228;11.102;2024-01-30T03:59:54;16.40;;;10.23;;
31382;SDS011;18014;49.228;11.102;2024-01-30T04:01:55;14.40;;;10.10;;
31382;SDS011;18014;49.228;11.102;2024-01-30T04:03:56;14.85;;;10.00;;
31382;SDS011;18014;49.228;11.102;2024-01-30T04:05:57;16.40;;;10.25;;
31382;SDS011;18014;49.228;11.102;2024-01-30T04:07:58;16.38;;;10.35;;
31382;SDS011;18014;49.228;11.102;2024-01-30T04:09:59;12.27;;;9.50;;
31382;SDS011;18014;49.228;11.102;2024-01-30T04:12:00;21.75;;;10.95;;
31382;SDS011;18014;49.228;11.102;2024-01-30T04:14:02;17.58;;;10.50;;
31382;SDS011;18014;49.228;11.102;2024-01-30T04:16:03;19.13;;;10.43;;
31382;SDS011;18014;49.228;11.102;2024-01-30T04:18:05;18.92;;;10.35;;
31382;SDS011;18014;49.228;11.102;2024-01-30T04:20:06;18.10;;;10.38;;
31382;SDS011;18014;49.228;11.102;2024-01-30T04:22:07;16.75;;;10.02;;
31382;SDS011;18014;49.228;11.102;2024-01-30T04:24:08;16.45;;;9.43;;
31382;SDS011;18014;49.228;11.102;2024-01-30T04:26:09;16.27;;;10.55;;
31382;SDS011;18014;49.228;11.102;2024-01-30T04:28:10;19.70;;;10.48;;
31382;SDS011;18014;49.228;11.102;2024-01-30T04:30:12;16.08;;;10.73;;
31382;SDS011;18014;49.228;11.102;2024-01-30T04:32:13;18.00;;;11.48;;
31382;SDS011;18014;49.228;11.102;2024-01-30T04:34:14;15.95;;;10.82;;
31382;SDS011;18014;49.228;11.102;2024-01-30T04:36:15;16.45;;;10.27;;
31382;SDS011;18014;49.228;11.102;2024-01-30T04:38:16;16.48;;;9.88;;
31382;SDS011;18014;49.228;11.102;2024-01-30T04:40:17;17.85;;;10.52;;
31382;SDS011;18014;49.228;11.102;2024-01-30T04:42:18;16.10;;;10.57;;
31382;SDS011;18014;49.228;11.102;2024-01-30T04:44:19;15.82;;;9.35;;
31382;SDS011;18014;49.228;11.102;2024-01-30T04:46:20;14.95;;;11.02;;
31382;SDS011;18014;49.228;11.102;2024-01-30T04:48:22;18.13;;;10.82;;
31382;SDS011;18014;49.228;11.102;2024-01-30T04:50:23;15.07;;;10.38;;
31382;SDS011;18014;49.228;11.102;2024-01-30T04:52:24;16.40;;;10.48;;
31382;SDS011;18014;49.228;11.102;2024-01-30T04:54:25;19.40;;;12.05;;
31382;SDS011;18014;49.228;11.102;2024-01-30T04:56:26;17.92;;;12.45;;
31382;SDS011;18014;49.228;11.102;2024-01-30T04:58:27;17.92;;;10.75;;
31382;SDS011;18014;49.228;11.102;2024-01-30T05:00:28;23.00;;;12.93;;
31382;SDS011;18014;49.228;11.102;2024-01-30T05:02:29;17.77;;;11.15;;
31382;SDS011;18014;49.228;11.102;2024-01-30T05:04:30;17.58;;;11.00;;
31382;SDS011;18014;49.228;11.102;2024-01-30T05:06:31;18.52;;;10.45;;
31382;SDS011;18014;49.228;11.102;2024-01-30T05:08:32;18.25;;;10.55;;
31382;SDS011;18014;49.228;11.102;2024-01-30T05:10:33;21.35;;;10.57;;
31382;SDS011;18014;49.228;11.102;2024-01-30T05:12:34;17.75;;;11.02;;
31382;SDS011;18014;49.228;11.102;2024-01-30T05:14:35;18.08;;;11.02;;
31382;SDS011;18014;49.228;11.102;2024-01-30T05:16:36;15.88;;;11.50;;
31382;SDS011;18014;49.228;11.102;2024-01-30T05:18:37;17.20;;;11.80;;
31382;SDS011;18014;49.228;11.102;2024-01-30T05:20:38;17.45;;;10.75;;
31382;SDS011;18014;49.228;11.102;2024-01-30T05:22:39;15.48;;;10.75;;
31382;SDS011;18014;49.228;11.102;2024-01-30T05:24:44;22.00;;;10.48;;
31382;SDS011;18014;49.228;11.102;2024-01-30T05:26:45;15.00;;;10.50;;
31382;SDS011;18014;49.228;11.102;2024-01-30T05:28:48;16.98;;;11.40;;
31382;SDS011;18014;49.228;11.102;2024-01-30T05:30:49;19.67;;;11.52;;
31382;SDS011;18014;49.228;11.102;2024-01-30T05:32:50;20.63;;;11.73;;
31382;SDS011;18014;49.228;11.102;2024-01-30T05:34:51;15.43;;;10.80;;
31382;SDS011;18014;49.228;11.102;2024-01-30T05:36:52;15.70;;;10.38;;
31382;SDS011;18014;49.228;11.102;2024-01-30T05:38:53;22.90;;;12.73;;
31382;SDS011;18014;49.228;11.102;2024-01-30T05:40:54;17.05;;;10.98;;
31382;SDS011;18014;49.228;11.102;2024-01-30T05:42:55;18.73;;;11.50;;
31382;SDS011;18014;49.228;11.102;2024-01-30T05:44:58;19.27;;;10.65;;
31382;SDS011;18014;49.228;11.102;2024-01-30T05:47:02;16.33;;;10.93;;
31382;SDS011;18014;49.228;11.102;2024-01-30T05:49:03;17.13;;;9.95;;
31382;SDS011;18014;49.228;11.102;2024-01-30T05:51:04;17.55;;;11.05;;
31382;SDS011;18014;49.228;11.102;2024-01-30T05:53:06;17.35;;;10.68;;
31382;SDS011;18014;49.228;11.102;2024-01-30T05:55:07;15.55;;;10.18;;
31382;SDS011;18014;49.228;11.102;2024-01-30T05:57:09;13.60;;;10.30;;
31382;SDS011;18014;49.228;11.102;2024-01-30T05:59:10;17.90;;;11.13;;
31382;SDS011;18014;49.228;11.102;2024-01-30T06:01:11;18.17;;;10.30;;
31382;SDS011;18014;49.228;11.102;2024-01-30T06:03:12;18.00;;;10.48;;
31382;SDS011;18014;49.228;11.102;2024-01-30T06:05:13;15.80;;;10.48;;
31382;SDS011;18014;49.228;11.102;2024-01-30T06:07:14;16.50;;;10.20;;
31382;SDS011;18014;49.228;11.102;2024-01-30T06:11:18;15.40;;;10.50;;
31382;SDS011;18014;49.228;11.102;2024-01-30T06:13:19;14.85;;;10.02;;
31382;SDS011;18014;49.228;11.102;2024-01-30T06:15:20;14.77;;;10.38;;
31382;SDS011;18014;49.228;11.102;2024-01-30T06:17:21;22.63;;;13.35;;
31382;SDS011;18014;49.228;11.102;2024-01-30T06:19:22;17.73;;;9.80;;
31382;SDS011;18014;49.228;11.102;2024-01-30T06:21:23;15.52;;;9.50;;
31382;SDS011;18014;49.228;11.102;2024-01-30T06:23:24;18.90;;;11.48;;
31382;SDS011;18014;49.228;11.102;2024-01-30T06:25:26;14.70;;;9.93;;
31382;SDS011;18014;49.228;11.102;2024-01-30T06:27:27;20.77;;;13.70;;
31382;SDS011;18014;49.228;11.102;2024-01-30T06:29:27;23.10;;;13.10;;
31382;SDS011;18014;49.228;11.102;2024-01-30T06:31:29;20.67;;;12.73;;
31382;SDS011;18014;49.228;11.102;2024-01-30T06:33:30;18.02;;;12.25;;
31382;SDS011;18014;49.228;11.102;2024-01-30T06:35:30;19.08;;;12.73;;
31382;SDS011;18014;49.228;11.102;2024-01-30T06:37:31;19.95;;;12.90;;
31382;SDS011;18014;49.228;11.102;2024-01-30T06:39:32;20.00;;;12.95;;
31382;SDS011;18014;49.228;11.102;2024-01-30T06:41:33;22.52;;;13.07;;
31382;SDS011;18014;49.228;11.102;2024-01-30T06:43:34;20.33;;;12.82;;
31382;SDS011;18014;49.228;11.102;2024-01-30T06:45:35;23.05;;;13.18;;
31382;SDS011;18014;49.228;11.102;2024-01-30T06:47:37;23.90;;;14.60;;
31382;SDS011;18014;49.228;11.102;2024-01-30T06:49:38;19.33;;;13.25;;
31382;SDS011;18014;49.228;11.102;2024-01-30T06:51:39;19.45;;;12.77;;
31382;SDS011;18014;49.228;11.102;2024-01-30T06:53:40;21.20;;;13.52;;
31382;SDS011;18014;49.228;11.102;2024-01-30T06:55:41;22.38;;;14.43;;
31382;SDS011;18014;49.228;11.102;2024-01-30T06:57:42;22.05;;;14.90;;
31382;SDS011;18014;49.228;11.102;2024-01-30T06:59:43;23.30;;;14.35;;
31382;SDS011;18014;49.228;11.102;2024-01-30T07:01:44;25.10;;;14.55;;
31382;SDS011;18014;49.228;11.102;2024-01-30T07:03:45;28.48;;;14.65;;
31382;SDS011;18014;49.228;11.102;2024-01-30T07:05:45;22.27;;;13.45;;
31382;SDS011;18014;49.228;11.102;2024-01-30T07:07:46;22.95;;;13.35;;
31382;SDS011;18014;49.228;11.102;2024-01-30T07:09:47;21.80;;;13.35;;
31382;SDS011;18014;49.228;11.102;2024-01-30T07:11:53;24.27;;;15.07;;
31382;SDS011;18014;49.228;11.102;2024-01-30T07:13:55;24.63;;;14.35;;
31382;SDS011;18014;49.228;11.102;2024-01-30T07:15:56;22.67;;;14.27;;
31382;SDS011;18014;49.228;11.102;2024-01-30T07:17:57;20.58;;;14.32;;
31382;SDS011;18014;49.228;11.102;2024-01-30T07:19:58;21.52;;;14.43;;
31382;SDS011;18014;49.228;11.102;2024-01-30T07:22:00;18.83;;;12.85;;
31382;SDS011;18014;49.228;11.102;2024-01-30T07:24:01;25.60;;;13.77;;
31382;SDS011;18014;49.228;11.102;2024-01-30T07:26:02;24.70;;;15.82;;
31382;SDS011;18014;49.228;11.102;2024-01-30T07:28:03;23.05;;;15.95;;
31382;SDS011;18014;49.228;11.102;2024-01-30T07:30:05;23.27;;;14.18;;
31382;SDS011;18014;49.228;11.102;2024-01-30T07:32:07;22.33;;;14.60;;
31382;SDS011;18014;49.228;11.102;2024-01-30T07:34:08;19.25;;;13.10;;
31382;SDS011;18014;49.228;11.102;2024-01-30T07:36:09;23.70;;;13.60;;
31382;SDS011;18014;49.228;11.102;2024-01-30T07:38:10;22.13;;;14.15;;
31382;SDS011;18014;49.228;11.102;2024-01-30T07:40:11;22.00;;;13.73;;
31382;SDS011;18014;49.228;11.102;2024-01-30T07:42:12;21.00;;;14.15;;
31382;SDS011;18014;49.228;11.102;2024-01-30T07:44:13;20.27;;;14.95;;
31382;SDS011;18014;49.228;11.102;2024-01-30T07:46:14;28.92;;;14.15;;
31382;SDS011;18014;49.228;11.102;2024-01-30T07:48:15;24.40;;;15.23;;
31382;SDS011;18014;49.228;11.102;2024-01-30T07:50:16;24.90;;;14.52;;
31382;SDS011;18014;49.228;11.102;2024-01-30T07:52:18;26.60;;;15.60;;
31382;SDS011;18014;49.228;11.102;2024-01-30T07:54:19;21.85;;;15.27;;
31382;SDS011;18014;49.228;11.102;2024-01-30T07:56:20;23.90;;;16.48;;
31382;SDS011;18014;49.228;11.102;2024-01-30T07:58:21;26.20;;;15.18;;
31382;SDS011;18014;49.228;11.102;2024-01-30T08:00:23;24.85;;;16.42;;
31382;SDS011;18014;49.228;11.102;2024-01-30T08:02:24;23.65;;;15.75;;
31382;SDS011;18014;49.228;11.102;2024-01-30T08:04:25;22.75;;;15.68;;
31382;SDS011;18014;49.228;11.102;2024-01-30T08:06:26;24.13;;;16.05;;
31382;SDS011;18014;49.228;11.102;2024-01-30T08:08:27;24.30;;;15.80;;
31382;SDS011;18014;49.228;11.102;2024-01-30T08:10:28;20.05;;;15.20;;
31382;SDS011;18014;49.228;11.102;2024-01-30T08:12:29;23.88;;;15.80;;
31382;SDS011;18014;49.228;11.102;2024-01-30T08:14:30;19.85;;;14.80;;
31382;SDS011;18014;49.228;11.102;2024-01-30T08:16:31;21.85;;;14.48;;
31382;SDS011;18014;49.228;11.102;2024-01-30T08:18:33;26.10;;;14.95;;
31382;SDS011;18014;49.228;11.102;2024-01-30T08:20:34;23.67;;;14.90;;
31382;SDS011;18014;49.228;11.102;2024-01-30T08:22:35;21.17;;;15.25;;
31382;SDS011;18014;49.228;11.102;2024-01-30T08:24:37;25.10;;;15.20;;
31382;SDS011;18014;49.228;11.102;2024-01-30T08:26:40;21.58;;;15.38;;
31382;SDS011;18014;49.228;11.102;2024-01-30T08:28:41;26.77;;;16.85;;
31382;SDS011;18014;49.228;11.102;2024-01-30T08:30:42;21.48;;;15.88;;
31382;SDS011;18014;49.228;11.102;2024-01-30T08:32:43;26.70;;;15.73;;
31382;SDS011;18014;49.228;11.102;2024-01-30T08:34:44;22.27;;;15.45;;
31382;SDS011;18014;49.228;11.102;2024-01-30T08:36:45;23.73;;;15.48;;
31382;SDS011;18014;49.228;11.102;2024-01-30T08:38:46;19.83;;;14.98;;
31382;SDS011;18014;49.228;11.102;2024-01-30T08:40:47;22.75;;;14.45;;
31382;SDS011;18014;49.228;11.102;2024-01-30T08:42:48;24.80;;;16.00;;
31382;SDS011;18014;49.228;11.102;2024-01-30T08:44:49;23.92;;;14.98;;
31382;SDS011;18014;49.228;11.102;2024-01-30T08:46:51;22.85;;;14.93;;
31382;SDS011;18014;49.228;11.102;2024-01-30T08:48:52;23.58;;;14.77;;
31382;SDS011;18014;49.228;11.102;2024-01-30T08:50:53;21.45;;;15.38;;
31382;SDS011;18014;49.228;11.102;2024-01-30T08:52:54;20.58;;;15.90;;
31382;SDS011;18014;49.228;11.102;2024-01-30T08:54:56;25.02;;;15.73;;
31382;SDS011;18014;49.228;11.102;2024-01-30T08:56:57;28.45;;;15.88;;
31382;SDS011;18014;49.228;11.102;2024-01-30T08:58:58;22.15;;;15.95;;
31382;SDS011;18014;49.228;11.102;2024-01-30T09:00:59;24.20;;;16.15;;
31382;SDS011;18014;49.228;11.102;2024-01-30T09:03:00;21.55;;;15.77;;
31382;SDS011;18014;49.228;11.102;2024-01-30T09:05:01;25.65;;;16.40;;
31382;SDS011;18014;49.228;11.102;2024-01-30T09:07:02;25.75;;;15.30;;
31382;SDS011;18014;49.228;11.102;2024-01-30T09:09:05;20.83;;;15.60;;
31382;SDS011;18014;49.228;11.102;2024-01-30T09:11:11;21.60;;;15.75;;
31382;SDS011;18014;49.228;11.102;2024-01-30T09:13:12;24.02;;;15.27;;
31382;SDS011;18014;49.228;11.102;2024-01-30T09:15:13;21.65;;;14.98;;
31382;SDS011;18014;49.228;11.102;2024-01-30T09:17:14;25.63;;;14.85;;
31382;SDS011;18014;49.228;11.102;2024-01-30T09:19:15;23.52;;;15.43;;
31382;SDS011;18014;49.228;11.102;2024-01-30T09:21:16;24.75;;;14.80;;
31382;SDS011;18014;49.228;11.102;2024-01-30T09:23:17;20.88;;;14.90;;
31382;SDS011;18014;49.228;11.102;2024-01-30T09:25:19;21.08;;;14.32;;
31382;SDS011;18014;49.228;11.102;2024-01-30T09:27:20;20.92;;;15.32;;
31382;SDS011;18014;49.228;11.102;2024-01-30T09:29:21;20.88;;;13.95;;
31382;SDS011;18014;49.228;11.102;2024-01-30T09:31:22;21.42;;;14.52;;
31382;SDS011;18014;49.228;11.102;2024-01-30T09:33:23;24.73;;;14.10;;
31382;SDS011;18014;49.228;11.102;2024-01-30T09:35:24;22.65;;;13.73;;
31382;SDS011;18014;49.228;11.102;2024-01-30T09:37:25;30.15;;;17.13;;
31382;SDS011;18014;49.228;11.102;2024-01-30T09:39:26;26.17;;;15.27;;
31382;SDS011;18014;49.228;11.102;2024-01-30T09:41:27;23.85;;;14.23;;
31382;SDS011;18014;49.228;11.102;2024-01-30T09:43:31;21.52;;;12.80;;
31382;SDS011;18014;49.228;11.102;2024-01-30T09:45:36;25.08;;;13.75;;
31382;SDS011;18014;49.228;11.102;2024-01-30T09:47:41;17.58;;;11.93;;
31382;SDS011;18014;49.228;11.102;2024-01-30T09:49:43;19.50;;;12.55;;
31382;SDS011;18014;49.228;11.102;2024-01-30T09:51:45;17.75;;;12.32;;
31382;SDS011;18014;49.228;11.102;2024-01-30T09:53:46;18.33;;;11.30;;
31382;SDS011;18014;49.228;11.102;2024-01-30T09:55:47;18.88;;;12.57;;
31382;SDS011;18014;49.228;11.102;2024-01-30T09:57:50;18.88;;;11.98;;
31382;SDS011;18014;49.228;11.102;2024-01-30T09:59:51;21.23;;;12.40;;
31382;SDS011;18014;49.228;11.102;2024-01-30T10:01:54;17.65;;;11.73;;
31382;SDS011;18014;49.228;11.102;2024-01-30T10:03:55;17.80;;;12.18;;
31382;SDS011;18014;49.228;11.102;2024-01-30T10:05:56;18.08;;;12.32;;
31382;SDS011;18014;49.228;11.102;2024-01-30T10:07:57;16.98;;;11.27;;
31382;SDS011;18014;49.228;11.102;2024-01-30T10:09:59;15.02;;;10.45;;
31382;SDS011;18014;49.228;11.102;2024-01-30T10:11:59;16.25;;;11.43;;
31382;SDS011;18014;49.228;11.102;2024-01-30T10:14:03;17.35;;;11.45;;
31382;SDS011;18014;49.228;11.102;2024-01-30T10:16:04;14.88;;;10.68;;
31382;SDS011;18014;49.228;11.102;2024-01-30T10:18:06;18.95;;;11.30;;
31382;SDS011;18014;49.228;11.102;2024-01-30T10:20:10;14.85;;;10.80;;
31382;SDS011;18014;49.228;11.102;2024-01-30T10:22:11;19.77;;;11.57;;
31382;SDS011;18014;49.228;11.102;2024-01-30T10:24:12;16.63;;;10.43;;
31382;SDS011;18014;49.228;11.102;2024-01-30T10:26:15;16.25;;;11.02;;
31382;SDS011;18014;49.228;11.102;2024-01-30T10:28:17;16.70;;;11.40;;
31382;SDS011;18014;49.228;11.102;2024-01-30T10:30:18;15.35;;;11.02;;
31382;SDS011;18014;49.228;11.102;2024-01-30T10:32:19;20.58;;;12.80;;
31382;SDS011;18014;49.228;11.102;2024-01-30T10:34:21;20.70;;;12.32;;
31382;SDS011;18014;49.228;11.102;2024-01-30T10:36:22;20.67;;;13.30;;
31382;SDS011;18014;49.228;11.102;2024-01-30T10:38:32;20.95;;;12.77;;
31382;SDS011;18014;49.228;11.102;2024-01-30T10:40:33;21.33;;;12.85;;
31382;SDS011;18014;49.228;11.102;2024-01-30T10:42:36;16.40;;;12.65;;
31382;SDS011;18014;49.228;11.102;2024-01-30T10:44:48;22.65;;;15.10;;
31382;SDS011;18014;49.228;11.102;2024-01-30T10:47:11;23.15;;;12.82;;
31382;SDS011;18014;49.228;11.102;2024-01-30T10:49:14;21.65;;;12.57;;
31382;SDS011;18014;49.228;11.102;2024-01-30T10:51:18;18.45;;;11.93;;
31382;SDS011;18014;49.228;11.102;2024-01-30T10:53:22;20.33;;;12.60;;
31382;SDS011;18014;49.228;11.102;2024-01-30T10:55:23;20.17;;;12.20;;
31382;SDS011;18014;49.228;11.102;2024-01-30T10:57:28;20.35;;;13.43;;
31382;SDS011;18014;49.228;11.102;2024-01-30T10:59:30;17.98;;;13.35;;
31382;SDS011;18014;49.228;11.102;2024-01-30T11:01:32;22.55;;;14.07;;
31382;SDS011;18014;49.228;11.102;2024-01-30T11:03:34;24.25;;;13.55;;
31382;SDS011;18014;49.228;11.102;2024-01-30T11:05:36;18.90;;;12.00;;
31382;SDS011;18014;49.228;11.102;2024-01-30T11:07:41;22.25;;;12.90;;
31382;SDS011;18014;49.228;11.102;2024-01-30T11:09:52;20.63;;;13.07;;
31382;SDS011;18014;49.228;11.102;2024-01-30T11:11:58;21.15;;;13.32;;
31382;SDS011;18014;49.228;11.102;2024-01-30T11:14:03;24.58;;;13.05;;
31382;SDS011;18014;49.228;11.102;2024-01-30T11:16:04;20.13;;;12.50;;
31382;SDS011;18014;49.228;11.102;2024-01-30T11:18:06;20.35;;;13.30;;
31382;SDS011;18014;49.228;11.102;2024-01-30T11:20:09;16.65;;;12.57;;
31382;SDS011;18014;49.228;11.102;2024-01-30T11:22:20;21.48;;;12.73;;
31382;SDS011;18014;49.228;11.102;2024-01-30T11:24:21;18.00;;;10.85;;
31382;SDS011;18014;49.228;11.102;2024-01-30T11:26:28;34.25;;;15.90;;
31382;SDS011;18014;49.228;11.102;2024-01-30T11:28:33;45.67;;;22.20;;
31382;SDS011;18014;49.228;11.102;2024-01-30T11:30:37;28.60;;;16.02;;
31382;SDS011;18014;49.228;11.102;2024-01-30T11:32:38;26.52;;;15.05;;
31382;SDS011;18014;49.228;11.102;2024-01-30T11:34:40;16.88;;;12.00;;
31382;SDS011;18014;49.228;11.102;2024-01-30T11:38:43;19.17;;;12.40;;
31382;SDS011;18014;49.228;11.102;2024-01-30T11:40:45;17.37;;;10.80;;
31382;SDS011;18014;49.228;11.102;2024-01-30T11:42:47;20.15;;;9.85;;
31382;SDS011;18014;49.228;11.102;2024-01-30T11:44:49;18.20;;;10.63;;
31382;SDS011;18014;49.228;11.102;2024-01-30T11:46:51;18.23;;;10.88;;
31382;SDS011;18014;49.228;11.102;2024-01-30T11:48:52;16.92;;;11.35;;
31382;SDS011;18014;49.228;11.102;2024-01-30T11:50:53;18.40;;;11.38;;